Time;durP1;ratioP1;P1;durP2;ratioP2;P2;SDS_P1;SDS_P2;PMS_P1;PMS_P2;Temp;Humidity;BMP_temperature;BMP_pressure;BME280_temperature;BME280_humidity;BME280_pressure;Samples;Min_cycle;Max_cycle;Signal;HPM_P1;HPM_P2
2023/08/07 00:00:09;;;;;;;0.10;0.10;;;;;;;;;;6105463;23;20340;-93
2023/08/07 00:02:35;;;;;;;0.10;0.10;;;;;;;;;;6154160;23;20013;-92
2023/08/07 00:05:01;;;;;;;0.10;0.10;;;;;;;;;;6129745;23;20009;-92
2023/08/07 00:07:27;;;;;;;0.10;0.10;;;;;;;;;;6155775;23;20368;-93
2023/08/07 00:09:53;;;;;;;0.10;0.10;;;;;;;;;;6129950;23;20064;-92
2023/08/07 00:12:19;;;;;;;0.10;0.10;;;;;;;;;;6104982;23;20013;-92
2023/08/07 00:14:47;;;;;;;0.10;0.10;;;;;;;;;;6129642;23;20020;-92
2023/08/07 00:17:13;;;;;;;0.20;0.20;;;;;;;;;;6129807;23;20340;-92
2023/08/07 00:19:39;;;;;;;0.10;0.10;;;;;;;;;;6129831;23;20017;-92
2023/08/07 00:22:05;;;;;;;0.10;0.10;;;;;;;;;;6129107;23;20021;-91
2023/08/07 00:24:31;;;;;;;0.10;0.10;;;;;;;;;;6129918;23;20025;-92
2023/08/07 00:26:57;;;;;;;0.10;0.10;;;;;;;;;;6153650;23;20056;-91
2023/08/07 00:29:23;;;;;;;0.70;0.70;;;;;;;;;;6129497;23;20448;-92
2023/08/07 00:31:49;;;;;;;0.10;0.10;;;;;;;;;;6129635;23;20013;-92
2023/08/07 00:34:15;;;;;;;0.10;0.10;;;;;;;;;;6105027;23;20014;-92
2023/08/07 00:36:41;;;;;;;3.05;0.75;;;;;;;;;;6154167;23;20117;-94
2023/08/07 00:39:08;;;;;;;0.10;0.10;;;;;;;;;;6129675;23;20018;-93
2023/08/07 00:41:34;;;;;;;0.20;0.20;;;;;;;;;;6154376;23;20014;-90
2023/08/07 00:44:00;;;;;;;0.10;0.10;;;;;;;;;;6155727;23;20009;-93
2023/08/07 00:46:27;;;;;;;0.10;0.10;;;;;;;;;;6154082;23;20332;-92
2023/08/07 00:48:53;;;;;;;0.10;0.10;;;;;;;;;;6129231;23;20020;-92
2023/08/07 00:51:19;;;;;;;0.10;0.10;;;;;;;;;;6129156;23;20049;-92
2023/08/07 00:53:45;;;;;;;0.10;0.10;;;;;;;;;;6154038;23;20084;-92
2023/08/07 00:56:11;;;;;;;0.10;0.10;;;;;;;;;;6153812;23;20017;-90
2023/08/07 00:58:37;;;;;;;0.10;0.10;;;;;;;;;;6128971;23;20029;-93
2023/08/07 01:01:04;;;;;;;0.10;0.10;;;;;;;;;;6129441;23;20017;-93
2023/08/07 01:03:30;;;;;;;0.10;0.10;;;;;;;;;;6104281;23;20013;-94
2023/08/07 01:05:56;;;;;;;0.20;0.20;;;;;;;;;;6105115;23;20010;-94
2023/08/07 01:08:22;;;;;;;0.10;0.10;;;;;;;;;;6129387;23;20344;-93
2023/08/07 01:10:56;;;;;;;0.10;0.10;;;;;;;;;;6105057;23;20323;-92
2023/08/07 01:13:28;;;;;;;0.20;0.20;;;;;;;;;;6104560;23;20014;-92
2023/08/07 01:15:56;;;;;;;1.08;0.20;;;;;;;;;;6128803;23;20016;-91
2023/08/07 01:18:22;;;;;;;0.20;0.20;;;;;;;;;;6104681;23;20013;-92
2023/08/07 01:20:48;;;;;;;0.10;0.10;;;;;;;;;;6104324;23;20009;-92
2023/08/07 01:23:14;;;;;;;0.10;0.10;;;;;;;;;;6152854;23;20005;-92
2023/08/07 01:25:40;;;;;;;0.10;0.10;;;;;;;;;;6153583;23;20014;-93
2023/08/07 01:28:29;;;;;;;0.15;0.15;;;;;;;;;;6153958;23;20033;-92
2023/08/07 01:30:56;;;;;;;0.20;0.20;;;;;;;;;;6145277;23;20009;-92
2023/08/07 01:33:24;;;;;;;0.10;0.10;;;;;;;;;;6153524;23;20014;-92
2023/08/07 01:35:52;;;;;;;0.10;0.10;;;;;;;;;;6129637;23;20013;-92
2023/08/07 01:38:18;;;;;;;0.15;0.15;;;;;;;;;;6104363;23;20093;-93
2023/08/07 01:40:44;;;;;;;0.10;0.10;;;;;;;;;;6129191;23;20021;-92
2023/08/07 01:43:10;;;;;;;0.10;0.10;;;;;;;;;;6129102;23;20014;-95
2023/08/07 01:45:36;;;;;;;0.10;0.10;;;;;;;;;;6153932;23;20041;-93
2023/08/07 01:48:02;;;;;;;0.10;0.10;;;;;;;;;;6105037;23;20040;-93
2023/08/07 01:50:29;;;;;;;0.13;0.13;;;;;;;;;;6129349;23;20018;-94
2023/08/07 01:52:54;;;;;;;0.57;0.25;;;;;;;;;;6129309;23;20033;-93
2023/08/07 01:55:21;;;;;;;0.10;0.10;;;;;;;;;;6105110;23;20018;-92
2023/08/07 01:57:47;;;;;;;0.10;0.10;;;;;;;;;;6153388;23;20013;-91
2023/08/07 02:00:13;;;;;;;0.10;0.10;;;;;;;;;;6104192;23;20071;-92
2023/08/07 02:02:39;;;;;;;0.20;0.20;;;;;;;;;;6129165;23;20477;-92
2023/08/07 02:05:05;;;;;;;0.15;0.15;;;;;;;;;;6129265;23;20032;-93
2023/08/07 02:07:31;;;;;;;0.10;0.10;;;;;;;;;;6153531;23;20083;-93
2023/08/07 02:09:57;;;;;;;0.10;0.10;;;;;;;;;;6128499;23;20009;-92
2023/08/07 02:12:25;;;;;;;0.20;0.20;;;;;;;;;;6129040;23;20017;-93
2023/08/07 02:14:51;;;;;;;0.10;0.10;;;;;;;;;;6129701;23;20017;-92
2023/08/07 02:17:17;;;;;;;0.10;0.10;;;;;;;;;;6130750;23;20013;-92
2023/08/07 02:19:43;;;;;;;0.10;0.10;;;;;;;;;;6131062;23;20014;-95
2023/08/07 02:22:09;;;;;;;0.20;0.20;;;;;;;;;;6131350;23;20014;-92
2023/08/07 02:24:35;;;;;;;0.10;0.10;;;;;;;;;;6130886;23;20040;-93
2023/08/07 02:27:01;;;;;;;0.10;0.10;;;;;;;;;;6130893;23;20356;-93
2023/08/07 02:29:27;;;;;;;0.10;0.10;;;;;;;;;;6106831;23;20017;-91
2023/08/07 02:31:53;;;;;;;0.10;0.10;;;;;;;;;;6155266;23;20021;-93
2023/08/07 02:34:19;;;;;;;0.10;0.10;;;;;;;;;;6106492;23;20013;-93
2023/08/07 02:36:45;;;;;;;0.10;0.10;;;;;;;;;;6105900;23;20080;-90
2023/08/07 02:39:11;;;;;;;0.10;0.10;;;;;;;;;;6106025;23;20025;-91
2023/08/07 02:41:37;;;;;;;0.10;0.10;;;;;;;;;;6130134;23;20017;-91
2023/08/07 02:44:03;;;;;;;0.17;0.17;;;;;;;;;;6155044;23;20018;-92
2023/08/07 02:46:29;;;;;;;0.10;0.10;;;;;;;;;;6154566;23;20013;-92
2023/08/07 02:48:55;;;;;;;0.10;0.10;;;;;;;;;;6130653;23;20016;-93
2023/08/07 02:51:21;;;;;;;0.10;0.10;;;;;;;;;;6155191;23;20018;-90
2023/08/07 02:53:47;;;;;;;0.10;0.10;;;;;;;;;;6155100;23;20025;-90
2023/08/07 02:56:13;;;;;;;0.10;0.10;;;;;;;;;;6155305;23;20093;-92
2023/08/07 02:58:39;;;;;;;0.20;0.20;;;;;;;;;;6130564;23;20040;-90
2023/08/07 03:01:08;;;;;;;0.10;0.10;;;;;;;;;;6106332;23;20026;-92
2023/08/07 03:03:34;;;;;;;0.10;0.10;;;;;;;;;;6106261;23;20010;-91
2023/08/07 03:06:00;;;;;;;0.10;0.10;;;;;;;;;;6154370;23;20084;-91
2023/08/07 03:08:26;;;;;;;0.10;0.10;;;;;;;;;;6129761;23;20037;-91
2023/08/07 03:10:53;;;;;;;0.10;0.10;;;;;;;;;;6105616;23;20049;-90
2023/08/07 03:13:19;;;;;;;0.20;0.20;;;;;;;;;;6129749;23;20424;-90
2023/08/07 03:15:45;;;;;;;0.10;0.10;;;;;;;;;;6105448;23;20088;-91
2023/08/07 03:18:11;;;;;;;0.10;0.10;;;;;;;;;;6129879;23;20309;-93
2023/08/07 03:20:37;;;;;;;0.10;0.10;;;;;;;;;;6106293;23;20014;-92
2023/08/07 03:23:03;;;;;;;0.13;0.13;;;;;;;;;;6106330;23;20040;-92
2023/08/07 03:25:29;;;;;;;0.65;0.32;;;;;;;;;;6104780;23;20014;-91
2023/08/07 03:27:55;;;;;;;0.20;0.20;;;;;;;;;;6105390;23;20096;-92
2023/08/07 03:30:21;;;;;;;0.10;0.10;;;;;;;;;;6105537;23;20539;-91
2023/08/07 03:32:47;;;;;;;0.10;0.10;;;;;;;;;;6130065;23;20014;-92
2023/08/07 03:35:13;;;;;;;2.72;1.27;;;;;;;;;;6105179;23;20068;-91
2023/08/07 03:37:39;;;;;;;0.10;0.10;;;;;;;;;;6154549;23;20017;-91
2023/08/07 03:40:06;;;;;;;0.10;0.10;;;;;;;;;;6129618;23;20100;-92
2023/08/07 03:42:32;;;;;;;0.10;0.10;;;;;;;;;;6105302;23;20021;-91
2023/08/07 03:44:58;;;;;;;0.10;0.10;;;;;;;;;;6154320;23;20010;-91
2023/08/07 03:47:24;;;;;;;0.20;0.20;;;;;;;;;;6154247;23;20013;-91
2023/08/07 03:49:50;;;;;;;0.10;0.10;;;;;;;;;;6129834;23;20016;-92
2023/08/07 03:52:17;;;;;;;0.20;0.20;;;;;;;;;;6129794;23;20020;-90
2023/08/07 03:54:43;;;;;;;0.75;0.30;;;;;;;;;;6129857;23;20014;-90
2023/08/07 03:57:10;;;;;;;0.10;0.10;;;;;;;;;;6153841;23;20101;-91
2023/08/07 03:59:36;;;;;;;0.20;0.20;;;;;;;;;;6129726;23;20348;-90
2023/08/07 04:02:02;;;;;;;0.10;0.10;;;;;;;;;;6155391;23;20387;-91
2023/08/07 04:04:28;;;;;;;0.10;0.10;;;;;;;;;;6104659;23;20013;-91
2023/08/07 04:06:54;;;;;;;0.15;0.15;;;;;;;;;;6129007;23;20096;-89
2023/08/07 04:09:20;;;;;;;0.10;0.10;;;;;;;;;;6129416;23;20020;-91
2023/08/07 04:11:46;;;;;;;0.20;0.20;;;;;;;;;;6105061;23;20052;-89
2023/08/07 04:14:13;;;;;;;0.10;0.10;;;;;;;;;;6155316;23;20049;-90
2023/08/07 04:16:39;;;;;;;0.10;0.10;;;;;;;;;;6154144;23;20024;-91
2023/08/07 04:19:07;;;;;;;0.10;0.10;;;;;;;;;;6129030;23;20036;-90
2023/08/07 04:21:33;;;;;;;0.98;0.95;;;;;;;;;;6153740;23;20017;-91
2023/08/07 04:24:10;;;;;;;0.10;0.10;;;;;;;;;;6128927;23;20024;-91
2023/08/07 04:26:36;;;;;;;0.10;0.10;;;;;;;;;;6153671;23;20049;-90
2023/08/07 04:29:02;;;;;;;0.20;0.20;;;;;;;;;;6104833;23;20348;-90
2023/08/07 04:31:30;;;;;;;0.20;0.20;;;;;;;;;;6153758;23;20052;-90
2023/08/07 04:33:56;;;;;;;0.10;0.10;;;;;;;;;;6129819;23;20335;-90
2023/08/07 04:36:22;;;;;;;0.30;0.30;;;;;;;;;;6153034;23;20021;-90
2023/08/07 04:38:48;;;;;;;0.20;0.20;;;;;;;;;;6128823;23;20415;-90
2023/08/07 04:41:14;;;;;;;0.20;0.20;;;;;;;;;;6129000;23;20014;-90
2023/08/07 04:43:42;;;;;;;0.10;0.10;;;;;;;;;;6104570;23;20033;-88
2023/08/07 04:46:09;;;;;;;0.10;0.10;;;;;;;;;;6104815;23;20080;-90
2023/08/07 04:48:35;;;;;;;0.10;0.10;;;;;;;;;;6128458;23;20479;-90
2023/08/07 04:51:01;;;;;;;0.10;0.10;;;;;;;;;;6129169;23;20427;-91
2023/08/07 04:53:27;;;;;;;0.10;0.10;;;;;;;;;;6129202;23;20064;-91
2023/08/07 04:55:53;;;;;;;0.35;0.35;;;;;;;;;;6153687;23;20009;-92
2023/08/07 04:58:19;;;;;;;0.10;0.10;;;;;;;;;;6153151;23;20025;-92
2023/08/07 05:00:45;;;;;;;0.10;0.10;;;;;;;;;;6154041;23;20053;-93
2023/08/07 05:03:11;;;;;;;0.30;0.30;;;;;;;;;;6129124;23;20010;-92
2023/08/07 05:05:37;;;;;;;0.20;0.20;;;;;;;;;;6129212;23;20316;-94
2023/08/07 05:08:03;;;;;;;0.10;0.10;;;;;;;;;;6128585;23;20095;-90
2023/08/07 05:10:29;;;;;;;0.10;0.10;;;;;;;;;;6128373;23;20017;-90
2023/08/07 05:12:55;;;;;;;0.20;0.20;;;;;;;;;;6104014;23;20017;-90
2023/08/07 05:15:24;;;;;;;0.10;0.10;;;;;;;;;;6153160;23;20018;-89
2023/08/07 05:17:50;;;;;;;0.85;0.20;;;;;;;;;;6128485;23;20014;-91
2023/08/07 05:20:17;;;;;;;0.10;0.10;;;;;;;;;;6128578;23;20014;-91
2023/08/07 05:22:43;;;;;;;3.70;0.32;;;;;;;;;;6153474;23;20023;-90
2023/08/07 05:25:09;;;;;;;0.10;0.10;;;;;;;;;;6154910;23;20342;-92
2023/08/07 05:27:35;;;;;;;0.40;0.40;;;;;;;;;;6152917;23;20448;-90
2023/08/07 05:30:01;;;;;;;0.10;0.10;;;;;;;;;;6128766;23;20344;-91
2023/08/07 05:32:28;;;;;;;0.10;0.10;;;;;;;;;;6128431;23;20013;-90
2023/08/07 05:34:54;;;;;;;0.10;0.10;;;;;;;;;;6154863;23;20033;-91
2023/08/07 05:37:20;;;;;;;0.10;0.10;;;;;;;;;;6104412;23;20088;-92
2023/08/07 05:39:46;;;;;;;0.10;0.10;;;;;;;;;;6104686;23;20037;-93
2023/08/07 05:42:12;;;;;;;0.20;0.20;;;;;;;;;;6129035;23;20586;-93
2023/08/07 05:44:38;;;;;;;0.10;0.10;;;;;;;;;;6104867;23;20010;-92
2023/08/07 05:47:04;;;;;;;0.10;0.10;;;;;;;;;;6128771;23;20452;-92
2023/08/07 05:49:31;;;;;;;0.15;0.15;;;;;;;;;;6104096;23;20084;-92
2023/08/07 05:51:57;;;;;;;0.20;0.20;;;;;;;;;;6128543;23;20017;-90
2023/08/07 05:54:23;;;;;;;0.10;0.10;;;;;;;;;;6128054;23;20020;-89
2023/08/07 05:56:49;;;;;;;0.40;0.40;;;;;;;;;;6102144;23;20017;-90
2023/08/07 05:59:15;;;;;;;0.65;0.65;;;;;;;;;;6103937;23;20014;-89
2023/08/07 06:01:41;;;;;;;0.10;0.10;;;;;;;;;;6103647;23;20022;-89
2023/08/07 06:04:08;;;;;;;0.10;0.10;;;;;;;;;;6152298;23;20021;-89
2023/08/07 06:06:35;;;;;;;0.10;0.10;;;;;;;;;;6127740;23;20073;-90
2023/08/07 06:09:02;;;;;;;0.10;0.10;;;;;;;;;;6154300;23;20016;-90
2023/08/07 06:11:28;;;;;;;0.10;0.10;;;;;;;;;;6127978;23;20028;-90
2023/08/07 06:13:54;;;;;;;0.10;0.10;;;;;;;;;;6127949;23;20013;-91
2023/08/07 06:16:20;;;;;;;0.40;0.40;;;;;;;;;;6103739;23;20022;-92
2023/08/07 06:18:46;;;;;;;0.40;0.40;;;;;;;;;;6128217;23;20024;-90
2023/08/07 06:21:12;;;;;;;0.20;0.20;;;;;;;;;;6105132;23;20096;-90
2023/08/07 06:23:38;;;;;;;0.10;0.10;;;;;;;;;;6152537;23;20096;-89
2023/08/07 06:26:04;;;;;;;0.15;0.15;;;;;;;;;;6152378;23;20076;-88
2023/08/07 06:28:33;;;;;;;0.10;0.10;;;;;;;;;;6152549;23;20072;-91
2023/08/07 06:31:03;;;;;;;0.10;0.10;;;;;;;;;;6152497;23;20013;-90
2023/08/07 06:33:29;;;;;;;0.75;0.17;;;;;;;;;;6130059;23;20096;-90
2023/08/07 06:35:55;;;;;;;0.10;0.10;;;;;;;;;;6103534;23;20010;-90
2023/08/07 06:38:21;;;;;;;0.10;0.10;;;;;;;;;;6127586;23;20466;-91
2023/08/07 06:40:46;;;;;;;0.10;0.10;;;;;;;;;;6103681;23;20014;-90
2023/08/07 06:43:12;;;;;;;0.30;0.30;;;;;;;;;;6128235;23;20076;-90
2023/08/07 06:45:39;;;;;;;0.20;0.20;;;;;;;;;;6127910;23;20028;-89
2023/08/07 06:48:05;;;;;;;0.45;0.30;;;;;;;;;;6127765;23;20021;-89
2023/08/07 06:50:31;;;;;;;0.10;0.10;;;;;;;;;;6104112;23;20103;-90
2023/08/07 06:52:57;;;;;;;0.30;0.30;;;;;;;;;;6154033;23;20018;-90
2023/08/07 06:55:23;;;;;;;0.20;0.20;;;;;;;;;;6152564;23;20017;-89
2023/08/07 06:57:49;;;;;;;0.10;0.10;;;;;;;;;;6103257;23;20013;-91
2023/08/07 07:00:15;;;;;;;0.10;0.10;;;;;;;;;;6152565;23;20009;-90
2023/08/07 07:02:41;;;;;;;0.20;0.20;;;;;;;;;;6154220;23;20463;-90
2023/08/07 07:05:07;;;;;;;0.13;0.13;;;;;;;;;;6129734;23;20010;-90
2023/08/07 07:07:33;;;;;;;0.20;0.20;;;;;;;;;;6129990;23;20017;-90
2023/08/07 07:10:00;;;;;;;0.10;0.10;;;;;;;;;;6153841;23;20044;-90
2023/08/07 07:12:27;;;;;;;0.10;0.10;;;;;;;;;;6129710;23;20020;-90
2023/08/07 07:14:53;;;;;;;0.20;0.20;;;;;;;;;;6105347;23;20457;-90
2023/08/07 07:17:19;;;;;;;0.52;0.22;;;;;;;;;;6154543;23;20478;-95
2023/08/07 07:19:45;;;;;;;0.20;0.20;;;;;;;;;;6129849;23;20024;-88
2023/08/07 07:22:11;;;;;;;0.10;0.10;;;;;;;;;;6129283;23;20017;-88
2023/08/07 07:24:38;;;;;;;0.20;0.20;;;;;;;;;;6129172;23;20013;-90
2023/08/07 07:27:04;;;;;;;0.10;0.10;;;;;;;;;;6129344;23;20024;-89
2023/08/07 07:29:30;;;;;;;0.10;0.10;;;;;;;;;;6129359;23;20024;-89
2023/08/07 07:31:56;;;;;;;0.63;0.63;;;;;;;;;;6129296;23;20013;-89
2023/08/07 07:34:22;;;;;;;0.17;0.17;;;;;;;;;;6153246;23;20014;-89
2023/08/07 07:36:48;;;;;;;0.20;0.20;;;;;;;;;;6105090;23;20022;-89
2023/08/07 07:39:14;;;;;;;0.30;0.30;;;;;;;;;;6129446;23;20185;-89
2023/08/07 07:41:40;;;;;;;0.10;0.10;;;;;;;;;;6153390;23;20455;-89
2023/08/07 07:44:06;;;;;;;0.10;0.10;;;;;;;;;;6153584;23;20014;-88
2023/08/07 07:46:32;;;;;;;0.25;0.25;;;;;;;;;;6129130;23;20061;-88
2023/08/07 07:48:58;;;;;;;0.10;0.10;;;;;;;;;;6153596;23;20391;-89
2023/08/07 07:51:24;;;;;;;0.80;0.20;;;;;;;;;;6129141;23;20374;-92
2023/08/07 07:53:51;;;;;;;0.20;0.20;;;;;;;;;;6105525;23;20017;-89
2023/08/07 07:56:16;;;;;;;0.38;0.35;;;;;;;;;;6128967;23;20020;-90
2023/08/07 07:58:43;;;;;;;0.20;0.20;;;;;;;;;;6128837;23;20084;-90
2023/08/07 08:01:09;;;;;;;0.32;0.20;;;;;;;;;;6153621;23;20024;-90
2023/08/07 08:03:35;;;;;;;0.15;0.15;;;;;;;;;;6129059;23;20336;-89
2023/08/07 08:06:01;;;;;;;0.13;0.13;;;;;;;;;;6153614;23;20020;-88
2023/08/07 08:08:27;;;;;;;0.22;0.22;;;;;;;;;;6128660;23;20009;-90
2023/08/07 08:10:53;;;;;;;0.20;0.20;;;;;;;;;;6153092;23;20029;-90
2023/08/07 08:13:19;;;;;;;0.20;0.20;;;;;;;;;;6128664;23;20503;-88
2023/08/07 08:15:45;;;;;;;0.20;0.20;;;;;;;;;;6155141;23;20009;-88
2023/08/07 08:18:11;;;;;;;0.15;0.15;;;;;;;;;;6128127;23;20394;-89
2023/08/07 08:20:38;;;;;;;0.20;0.20;;;;;;;;;;6154880;23;20009;-88
2023/08/07 08:23:04;;;;;;;0.22;0.22;;;;;;;;;;6152944;23;20466;-88
2023/08/07 08:25:30;;;;;;;0.10;0.10;;;;;;;;;;6128704;23;20009;-87
2023/08/07 08:27:56;;;;;;;0.90;0.20;;;;;;;;;;6128999;23;20041;-88
2023/08/07 08:30:22;;;;;;;1.70;0.35;;;;;;;;;;6153796;23;20443;-91
2023/08/07 08:32:48;;;;;;;0.10;0.10;;;;;;;;;;6129187;23;20021;-87
2023/08/07 08:35:14;;;;;;;0.10;0.10;;;;;;;;;;6128649;23;20024;-88
2023/08/07 08:37:40;;;;;;;0.10;0.10;;;;;;;;;;6128457;23;20014;-88
2023/08/07 08:40:07;;;;;;;0.20;0.20;;;;;;;;;;6128007;23;20013;-87
2023/08/07 08:42:33;;;;;;;0.70;0.28;;;;;;;;;;6153248;23;20018;-87
2023/08/07 08:44:59;;;;;;;0.17;0.17;;;;;;;;;;6153032;23;20096;-88
2023/08/07 08:47:26;;;;;;;0.10;0.10;;;;;;;;;;6128319;23;20076;-88
2023/08/07 08:49:59;;;;;;;1.95;0.30;;;;;;;;;;6128958;23;20009;-87
2023/08/07 08:52:25;;;;;;;0.10;0.10;;;;;;;;;;6153237;23;20013;-88
2023/08/07 08:54:51;;;;;;;0.20;0.20;;;;;;;;;;6152882;23;20393;-88
2023/08/07 08:57:17;;;;;;;0.10;0.10;;;;;;;;;;6128456;23;20021;-88
2023/08/07 08:59:43;;;;;;;0.10;0.10;;;;;;;;;;6128477;23;20092;-88
2023/08/07 09:02:10;;;;;;;0.40;0.40;;;;;;;;;;6128588;23;20506;-87
2023/08/07 09:04:36;;;;;;;0.20;0.20;;;;;;;;;;6152768;23;20013;-88
2023/08/07 09:07:02;;;;;;;0.20;0.20;;;;;;;;;;6152719;23;20017;-89
2023/08/07 09:09:28;;;;;;;0.20;0.20;;;;;;;;;;6153201;23;20392;-93
2023/08/07 09:11:57;;;;;;;0.10;0.10;;;;;;;;;;6104975;23;20052;-92
2023/08/07 09:14:25;;;;;;;0.10;0.10;;;;;;;;;;6129255;23;20014;-89
2023/08/07 09:16:51;;;;;;;0.40;0.40;;;;;;;;;;6153045;23;20017;-89
2023/08/07 09:19:17;;;;;;;0.30;0.30;;;;;;;;;;6153088;23;20080;-91
2023/08/07 09:21:43;;;;;;;0.20;0.20;;;;;;;;;;6103975;23;20017;-88
2023/08/07 09:24:09;;;;;;;0.10;0.10;;;;;;;;;;6103456;23;20068;-88
2023/08/07 09:26:35;;;;;;;0.20;0.20;;;;;;;;;;6152525;23;20014;-88
2023/08/07 09:29:01;;;;;;;0.38;0.38;;;;;;;;;;6154053;23;20075;-87
2023/08/07 09:31:27;;;;;;;0.20;0.20;;;;;;;;;;6128227;23;20018;-88
2023/08/07 09:33:53;;;;;;;1.20;0.32;;;;;;;;;;6103840;23;20027;-88
2023/08/07 09:36:19;;;;;;;0.30;0.30;;;;;;;;;;6127935;23;20280;-88
2023/08/07 09:38:50;;;;;;;0.47;0.20;;;;;;;;;;6154051;23;20013;-88
2023/08/07 09:41:18;;;;;;;0.35;0.35;;;;;;;;;;6153113;23;20045;-88
2023/08/07 09:43:44;;;;;;;0.20;0.20;;;;;;;;;;6128138;23;20088;-89
2023/08/07 09:46:09;;;;;;;0.20;0.20;;;;;;;;;;6152865;23;20051;-88
2023/08/07 09:48:42;;;;;;;0.20;0.20;;;;;;;;;;6152344;23;20009;-90
2023/08/07 09:51:08;;;;;;;0.25;0.25;;;;;;;;;;6152815;23;20017;-90
2023/08/07 09:53:34;;;;;;;1.88;0.90;;;;;;;;;;6152689;23;20016;-88
2023/08/07 09:56:02;;;;;;;0.10;0.10;;;;;;;;;;6153705;23;20093;-88
2023/08/07 09:58:28;;;;;;;0.20;0.20;;;;;;;;;;6129175;23;20347;-89
2023/08/07 10:00:55;;;;;;;0.10;0.10;;;;;;;;;;6128001;23;20019;-88
2023/08/07 10:03:22;;;;;;;1.00;1.00;;;;;;;;;;6152138;23;20129;-89
2023/08/07 10:05:48;;;;;;;0.77;0.65;;;;;;;;;;6152915;23;20245;-89
2023/08/07 10:08:14;;;;;;;0.20;0.20;;;;;;;;;;6128951;23;20499;-90
2023/08/07 10:10:40;;;;;;;1.95;0.30;;;;;;;;;;6103489;23;20055;-89
2023/08/07 10:13:06;;;;;;;0.52;0.38;;;;;;;;;;6127893;23;20018;-88
2023/08/07 10:15:34;;;;;;;0.30;0.30;;;;;;;;;;6152268;23;20073;-89
2023/08/07 10:18:00;;;;;;;2.50;0.20;;;;;;;;;;6153996;23;20014;-89
2023/08/07 10:20:29;;;;;;;0.10;0.10;;;;;;;;;;6127513;23;20021;-89
2023/08/07 10:23:04;;;;;;;0.17;0.17;;;;;;;;;;6127904;23;20096;-88
2023/08/07 10:25:30;;;;;;;0.30;0.30;;;;;;;;;;6126585;23;20013;-89
2023/08/07 10:27:56;;;;;;;0.20;0.20;;;;;;;;;;6103113;23;20100;-89
2023/08/07 10:30:22;;;;;;;0.20;0.20;;;;;;;;;;6127902;23;20014;-89
2023/08/07 10:32:48;;;;;;;0.20;0.20;;;;;;;;;;6128105;23;20052;-88
2023/08/07 10:35:24;;;;;;;0.30;0.30;;;;;;;;;;6153440;23;20045;-90
2023/08/07 10:37:50;;;;;;;0.20;0.20;;;;;;;;;;6105635;23;20014;-89
2023/08/07 10:40:17;;;;;;;0.20;0.20;;;;;;;;;;6131294;23;20053;-90
2023/08/07 10:42:55;;;;;;;0.10;0.10;;;;;;;;;;6153613;23;20014;-90
2023/08/07 10:45:22;;;;;;;0.20;0.20;;;;;;;;;;6155698;23;20020;-90
2023/08/07 10:48:06;;;;;;;0.30;0.30;;;;;;;;;;6129803;23;20013;-89
2023/08/07 10:50:32;;;;;;;0.10;0.10;;;;;;;;;;6105133;23;20039;-89
2023/08/07 10:53:04;;;;;;;0.10;0.10;;;;;;;;;;6157131;23;20021;-91
2023/08/07 10:55:44;;;;;;;0.10;0.10;;;;;;;;;;6133339;23;20017;-90
2023/08/07 10:58:23;;;;;;;0.10;0.10;;;;;;;;;;6129545;23;20495;-90
2023/08/07 11:00:49;;;;;;;0.10;0.10;;;;;;;;;;6129941;23;20075;-90
2023/08/07 11:03:26;;;;;;;0.10;0.10;;;;;;;;;;6129642;23;20017;-90
2023/08/07 11:05:52;;;;;;;0.10;0.10;;;;;;;;;;6129452;23;20509;-90
2023/08/07 11:08:22;;;;;;;0.20;0.20;;;;;;;;;;6153847;23;20108;-90
2023/08/07 11:10:48;;;;;;;0.50;0.50;;;;;;;;;;6129808;23;20021;-90
2023/08/07 11:13:14;;;;;;;0.10;0.10;;;;;;;;;;6155674;23;20048;-89
2023/08/07 11:15:40;;;;;;;0.10;0.10;;;;;;;;;;6158332;23;20068;-90
2023/08/07 11:18:07;;;;;;;0.10;0.10;;;;;;;;;;6153932;23;20024;-89
2023/08/07 11:20:33;;;;;;;0.47;0.47;;;;;;;;;;6129124;23;20013;-90
2023/08/07 11:22:59;;;;;;;0.10;0.10;;;;;;;;;;6129132;23;20075;-89
2023/08/07 11:25:26;;;;;;;0.20;0.20;;;;;;;;;;6129130;23;20021;-90
2023/08/07 11:27:52;;;;;;;0.20;0.20;;;;;;;;;;6129084;23;20018;-89
2023/08/07 11:30:18;;;;;;;0.55;0.40;;;;;;;;;;6155498;23;20440;-89
2023/08/07 11:32:45;;;;;;;0.10;0.10;;;;;;;;;;6129371;23;20391;-89
2023/08/07 11:35:11;;;;;;;0.10;0.10;;;;;;;;;;6128993;23;20043;-90
2023/08/07 11:37:37;;;;;;;0.20;0.20;;;;;;;;;;6129147;23;20036;-90
2023/08/07 11:40:03;;;;;;;0.20;0.20;;;;;;;;;;6129099;23;20464;-89
2023/08/07 11:42:29;;;;;;;0.20;0.20;;;;;;;;;;6128832;23;20017;-89
2023/08/07 11:44:55;;;;;;;0.25;0.25;;;;;;;;;;6129169;23;20045;-90
2023/08/07 11:47:21;;;;;;;0.10;0.10;;;;;;;;;;6155091;23;20048;-89
2023/08/07 11:49:47;;;;;;;0.20;0.20;;;;;;;;;;6128783;23;20009;-89
2023/08/07 11:52:13;;;;;;;0.13;0.13;;;;;;;;;;6155368;23;20021;-88
2023/08/07 11:54:39;;;;;;;0.10;0.10;;;;;;;;;;6129176;23;20089;-88
2023/08/07 11:57:16;;;;;;;0.10;0.10;;;;;;;;;;6153315;23;20045;-89
2023/08/07 11:59:42;;;;;;;0.20;0.20;;;;;;;;;;6155249;23;20117;-90
2023/08/07 12:02:11;;;;;;;0.13;0.13;;;;;;;;;;6104194;23;20022;-89
2023/08/07 12:04:37;;;;;;;0.30;0.30;;;;;;;;;;6154797;23;20013;-90
2023/08/07 12:07:03;;;;;;;0.10;0.10;;;;;;;;;;6153583;23;20014;-89
2023/08/07 12:09:29;;;;;;;0.10;0.10;;;;;;;;;;6129044;23;20053;-89
2023/08/07 12:11:57;;;;;;;0.65;0.45;;;;;;;;;;6129422;23;20347;-90
2023/08/07 12:14:23;;;;;;;0.30;0.30;;;;;;;;;;6155331;23;20094;-88
2023/08/07 12:16:49;;;;;;;0.20;0.20;;;;;;;;;;6152958;23;20026;-88
2023/08/07 12:19:16;;;;;;;0.20;0.20;;;;;;;;;;6153279;23;20024;-88
2023/08/07 12:21:43;;;;;;;0.20;0.20;;;;;;;;;;6152965;23;20112;-88
2023/08/07 12:24:09;;;;;;;0.15;0.15;;;;;;;;;;6153238;23;20017;-89
2023/08/07 12:26:35;;;;;;;0.10;0.10;;;;;;;;;;6153154;23;20095;-88
2023/08/07 12:29:01;;;;;;;0.10;0.10;;;;;;;;;;6128640;23;20017;-89
2023/08/07 12:31:27;;;;;;;0.20;0.20;;;;;;;;;;6128540;23;20043;-86
2023/08/07 12:33:53;;;;;;;0.10;0.10;;;;;;;;;;6104238;23;20391;-88
2023/08/07 12:36:19;;;;;;;0.10;0.10;;;;;;;;;;6153145;23;20017;-88
2023/08/07 12:38:44;;;;;;;0.32;0.32;;;;;;;;;;6152837;23;20020;-87
2023/08/07 12:41:10;;;;;;;0.10;0.10;;;;;;;;;;6152606;23;20017;-87
2023/08/07 12:43:36;;;;;;;0.10;0.10;;;;;;;;;;6153212;23;20006;-88
2023/08/07 12:46:02;;;;;;;0.20;0.20;;;;;;;;;;6103849;23;20005;-88
2023/08/07 12:48:28;;;;;;;0.20;0.20;;;;;;;;;;6153124;23;20018;-89
2023/08/07 12:50:54;;;;;;;0.10;0.10;;;;;;;;;;6103858;23;20009;-89
2023/08/07 12:53:20;;;;;;;0.17;0.17;;;;;;;;;;6128375;23;20083;-89
2023/08/07 12:55:46;;;;;;;0.10;0.10;;;;;;;;;;6152990;23;20491;-89
2023/08/07 12:58:12;;;;;;;0.10;0.10;;;;;;;;;;6127690;23;20017;-87
2023/08/07 13:00:38;;;;;;;0.63;0.63;;;;;;;;;;6128099;23;20029;-87
2023/08/07 13:03:04;;;;;;;0.10;0.10;;;;;;;;;;6128190;23;20014;-93
2023/08/07 13:05:31;;;;;;;0.20;0.20;;;;;;;;;;6103928;23;20440;-87
2023/08/07 13:07:58;;;;;;;0.20;0.20;;;;;;;;;;6154440;23;20014;-86
2023/08/07 13:10:24;;;;;;;0.10;0.10;;;;;;;;;;6129109;23;20041;-89
2023/08/07 13:12:50;;;;;;;0.20;0.20;;;;;;;;;;6152622;23;20036;-88
2023/08/07 13:15:16;;;;;;;0.20;0.20;;;;;;;;;;6152542;23;20183;-88
2023/08/07 13:17:42;;;;;;;0.40;0.40;;;;;;;;;;6153036;23;20399;-88
2023/08/07 13:20:09;;;;;;;0.22;0.22;;;;;;;;;;6128220;23;20048;-88
2023/08/07 13:22:35;;;;;;;0.10;0.10;;;;;;;;;;6152749;23;20474;-88
2023/08/07 13:25:03;;;;;;;0.20;0.20;;;;;;;;;;6128492;23;20010;-88
2023/08/07 13:27:30;;;;;;;0.20;0.20;;;;;;;;;;6152471;23;20021;-88
2023/08/07 13:29:56;;;;;;;0.20;0.20;;;;;;;;;;6128377;23;20021;-89
2023/08/07 13:32:22;;;;;;;0.10;0.10;;;;;;;;;;6152479;23;20021;-88
2023/08/07 13:34:48;;;;;;;0.20;0.20;;;;;;;;;;6152490;23;20053;-88
2023/08/07 13:37:14;;;;;;;0.10;0.10;;;;;;;;;;6154139;23;20376;-89
2023/08/07 13:39:41;;;;;;;0.50;0.50;;;;;;;;;;6153121;23;20085;-89
2023/08/07 13:42:07;;;;;;;0.20;0.20;;;;;;;;;;6152620;23;20014;-88
2023/08/07 13:44:33;;;;;;;0.10;0.10;;;;;;;;;;6127916;23;20009;-89
2023/08/07 13:46:59;;;;;;;0.40;0.40;;;;;;;;;;6127633;23;20347;-88
2023/08/07 13:49:25;;;;;;;0.13;0.13;;;;;;;;;;6152008;23;20013;-88
2023/08/07 13:51:51;;;;;;;0.10;0.10;;;;;;;;;;6127600;23;20055;-88
2023/08/07 13:54:17;;;;;;;0.10;0.10;;;;;;;;;;6127784;23;20018;-88
2023/08/07 13:56:43;;;;;;;0.25;0.25;;;;;;;;;;6127528;23;20013;-87
2023/08/07 13:59:09;;;;;;;0.20;0.20;;;;;;;;;;6127718;23;20017;-89
2023/08/07 14:01:35;;;;;;;0.20;0.20;;;;;;;;;;6127696;23;20029;-90
2023/08/07 14:04:02;;;;;;;0.10;0.10;;;;;;;;;;6103818;23;20045;-88
2023/08/07 14:06:28;;;;;;;0.38;0.38;;;;;;;;;;6152304;23;20013;-87
2023/08/07 14:08:54;;;;;;;0.20;0.20;;;;;;;;;;6127857;23;20044;-89
2023/08/07 14:11:20;;;;;;;0.20;0.20;;;;;;;;;;6105213;23;20447;-88
2023/08/07 14:13:47;;;;;;;0.22;0.22;;;;;;;;;;6103926;23;20101;-88
2023/08/07 14:16:13;;;;;;;0.28;0.28;;;;;;;;;;6129724;23;20052;-88
2023/08/07 14:18:39;;;;;;;0.30;0.20;;;;;;;;;;6129751;23;20100;-89
2023/08/07 14:21:05;;;;;;;0.20;0.20;;;;;;;;;;6154473;23;20013;-89
2023/08/07 14:23:31;;;;;;;4.65;0.45;;;;;;;;;;6130009;23;20037;-88
2023/08/07 14:25:57;;;;;;;0.30;0.30;;;;;;;;;;6105170;23;20107;-89
2023/08/07 14:28:23;;;;;;;0.10;0.10;;;;;;;;;;6155484;23;20451;-89
2023/08/07 14:30:49;;;;;;;0.30;0.28;;;;;;;;;;6129680;23;20021;-88
2023/08/07 14:33:16;;;;;;;0.20;0.20;;;;;;;;;;6154017;23;20082;-88
2023/08/07 14:35:42;;;;;;;0.10;0.10;;;;;;;;;;6155612;23;20477;-88
2023/08/07 14:38:08;;;;;;;0.35;0.35;;;;;;;;;;6153734;23;20029;-88